sensor_id;sensor_type;location;lat;lon;timestamp;P1;durP1;ratioP1;P2;durP2;ratioP2
21000;SDS011;10658;50.920;12.238;2023-02-17T00:03:23;22.67;;;12.85;;
21000;SDS011;10658;50.920;12.238;2023-02-17T00:07:24;19.85;;;12.75;;
21000;SDS011;10658;50.920;12.238;2023-02-17T00:11:31;22.02;;;12.75;;
21000;SDS011;10658;50.920;12.238;2023-02-17T00:15:33;22.30;;;12.10;;
21000;SDS011;10658;50.920;12.238;2023-02-17T00:19:37;23.83;;;12.45;;
21000;SDS011;10658;50.920;12.238;2023-02-17T00:23:38;21.67;;;12.73;;
21000;SDS011;10658;50.920;12.238;2023-02-17T00:27:40;22.83;;;12.50;;
21000;SDS011;10658;50.920;12.238;2023-02-17T00:32:01;20.15;;;11.65;;
21000;SDS011;10658;50.920;12.238;2023-02-17T00:36:09;19.35;;;11.77;;
21000;SDS011;10658;50.920;12.238;2023-02-17T00:40:12;19.58;;;11.75;;
21000;SDS011;10658;50.920;12.238;2023-02-17T00:44:15;19.05;;;11.30;;
21000;SDS011;10658;50.920;12.238;2023-02-17T00:48:20;22.33;;;12.43;;
21000;SDS011;10658;50.920;12.238;2023-02-17T00:52:22;19.10;;;11.40;;
21000;SDS011;10658;50.920;12.238;2023-02-17T00:56:24;18.83;;;11.77;;
21000;SDS011;10658;50.920;12.238;2023-02-17T01:00:25;19.40;;;11.85;;
21000;SDS011;10658;50.920;12.238;2023-02-17T01:04:27;20.88;;;10.50;;
21000;SDS011;10658;50.920;12.238;2023-02-17T01:08:29;18.98;;;11.05;;
21000;SDS011;10658;50.920;12.238;2023-02-17T01:12:30;17.05;;;10.82;;
21000;SDS011;10658;50.920;12.238;2023-02-17T01:16:34;16.42;;;9.23;;
21000;SDS011;10658;50.920;12.238;2023-02-17T01:20:37;18.10;;;10.15;;
21000;SDS011;10658;50.920;12.238;2023-02-17T01:24:40;15.25;;;9.52;;
21000;SDS011;10658;50.920;12.238;2023-02-17T01:28:40;16.23;;;9.35;;
21000;SDS011;10658;50.920;12.238;2023-02-17T01:32:42;18.17;;;10.70;;
21000;SDS011;10658;50.920;12.238;2023-02-17T01:36:42;15.00;;;8.52;;
21000;SDS011;10658;50.920;12.238;2023-02-17T01:40:45;16.92;;;10.13;;
21000;SDS011;10658;50.920;12.238;2023-02-17T01:53:39;16.60;;;9.68;;
21000;SDS011;10658;50.920;12.238;2023-02-17T01:57:50;19.15;;;9.88;;
21000;SDS011;10658;50.920;12.238;2023-02-17T02:01:57;18.40;;;9.80;;
21000;SDS011;10658;50.920;12.238;2023-02-17T02:06:00;17.55;;;9.68;;
21000;SDS011;10658;50.920;12.238;2023-02-17T02:10:08;13.27;;;9.10;;
21000;SDS011;10658;50.920;12.238;2023-02-17T02:14:11;16.05;;;8.88;;
21000;SDS011;10658;50.920;12.238;2023-02-17T02:26:52;16.83;;;10.32;;
21000;SDS011;10658;50.920;12.238;2023-02-17T02:35:15;16.92;;;9.98;;
21000;SDS011;10658;50.920;12.238;2023-02-17T02:39:20;16.85;;;9.57;;
21000;SDS011;10658;50.920;12.238;2023-02-17T02:43:24;19.15;;;9.85;;
21000;SDS011;10658;50.920;12.238;2023-02-17T03:00:24;12.85;;;7.80;;
21000;SDS011;10658;50.920;12.238;2023-02-17T03:05:27;16.15;;;8.95;;
21000;SDS011;10658;50.920;12.238;2023-02-17T03:09:26;14.88;;;8.05;;
21000;SDS011;10658;50.920;12.238;2023-02-17T03:13:28;13.00;;;8.27;;
21000;SDS011;10658;50.920;12.238;2023-02-17T03:17:32;18.08;;;8.32;;
21000;SDS011;10658;50.920;12.238;2023-02-17T03:21:38;11.68;;;7.97;;
21000;SDS011;10658;50.920;12.238;2023-02-17T03:25:51;13.45;;;7.55;;
21000;SDS011;10658;50.920;12.238;2023-02-17T03:29:51;16.63;;;8.13;;
21000;SDS011;10658;50.920;12.238;2023-02-17T03:33:55;15.18;;;8.48;;
21000;SDS011;10658;50.920;12.238;2023-02-17T03:37:57;14.10;;;8.48;;
21000;SDS011;10658;50.920;12.238;2023-02-17T03:41:58;13.52;;;8.65;;
21000;SDS011;10658;50.920;12.238;2023-02-17T03:46:01;12.32;;;9.05;;
21000;SDS011;10658;50.920;12.238;2023-02-17T03:50:03;15.43;;;9.18;;
21000;SDS011;10658;50.920;12.238;2023-02-17T03:54:04;11.82;;;7.97;;
21000;SDS011;10658;50.920;12.238;2023-02-17T03:58:06;17.73;;;9.35;;
21000;SDS011;10658;50.920;12.238;2023-02-17T04:02:07;13.77;;;8.57;;
21000;SDS011;10658;50.920;12.238;2023-02-17T04:06:10;12.70;;;8.73;;
21000;SDS011;10658;50.920;12.238;2023-02-17T04:10:13;12.63;;;8.88;;
21000;SDS011;10658;50.920;12.238;2023-02-17T04:14:14;11.20;;;7.40;;
21000;SDS011;10658;50.920;12.238;2023-02-17T04:18:15;14.85;;;8.45;;
21000;SDS011;10658;50.920;12.238;2023-02-17T04:22:17;12.35;;;8.05;;
21000;SDS011;10658;50.920;12.238;2023-02-17T04:26:18;18.30;;;9.82;;
21000;SDS011;10658;50.920;12.238;2023-02-17T04:30:19;14.50;;;8.95;;
21000;SDS011;10658;50.920;12.238;2023-02-17T04:34:21;16.48;;;9.30;;
21000;SDS011;10658;50.920;12.238;2023-02-17T04:38:22;14.15;;;8.95;;
21000;SDS011;10658;50.920;12.238;2023-02-17T04:42:43;14.40;;;8.30;;
21000;SDS011;10658;50.920;12.238;2023-02-17T04:46:44;14.00;;;8.57;;
21000;SDS011;10658;50.920;12.238;2023-02-17T04:50:46;17.50;;;9.68;;
21000;SDS011;10658;50.920;12.238;2023-02-17T04:54:46;14.30;;;7.97;;
21000;SDS011;10658;50.920;12.238;2023-02-17T04:58:48;13.57;;;7.70;;
21000;SDS011;10658;50.920;12.238;2023-02-17T05:02:50;18.02;;;8.93;;
21000;SDS011;10658;50.920;12.238;2023-02-17T05:06:51;13.32;;;7.78;;
21000;SDS011;10658;50.920;12.238;2023-02-17T05:10:53;12.57;;;8.40;;
21000;SDS011;10658;50.920;12.238;2023-02-17T05:14:54;10.40;;;7.20;;
21000;SDS011;10658;50.920;12.238;2023-02-17T05:18:55;12.90;;;8.13;;
21000;SDS011;10658;50.920;12.238;2023-02-17T05:22:56;11.02;;;7.47;;
21000;SDS011;10658;50.920;12.238;2023-02-17T05:26:57;11.40;;;6.80;;
21000;SDS011;10658;50.920;12.238;2023-02-17T05:30:59;10.57;;;6.60;;
21000;SDS011;10658;50.920;12.238;2023-02-17T05:35:00;10.70;;;6.88;;
21000;SDS011;10658;50.920;12.238;2023-02-17T05:39:01;10.70;;;6.82;;
21000;SDS011;10658;50.920;12.238;2023-02-17T05:43:03;9.70;;;5.47;;
21000;SDS011;10658;50.920;12.238;2023-02-17T05:47:06;9.93;;;6.60;;
21000;SDS011;10658;50.920;12.238;2023-02-17T05:51:29;10.05;;;6.28;;
21000;SDS011;10658;50.920;12.238;2023-02-17T05:55:30;10.73;;;6.30;;
21000;SDS011;10658;50.920;12.238;2023-02-17T05:59:32;9.10;;;6.72;;
21000;SDS011;10658;50.920;12.238;2023-02-17T06:03:33;11.50;;;7.43;;
21000;SDS011;10658;50.920;12.238;2023-02-17T06:07:36;8.30;;;6.50;;
21000;SDS011;10658;50.920;12.238;2023-02-17T06:11:37;11.60;;;7.47;;
21000;SDS011;10658;50.920;12.238;2023-02-17T06:16:00;11.50;;;7.43;;
21000;SDS011;10658;50.920;12.238;2023-02-17T06:20:03;14.20;;;8.57;;
21000;SDS011;10658;50.920;12.238;2023-02-17T06:24:06;13.48;;;7.82;;
21000;SDS011;10658;50.920;12.238;2023-02-17T06:28:07;12.95;;;9.13;;
21000;SDS011;10658;50.920;12.238;2023-02-17T06:32:08;14.48;;;8.68;;
21000;SDS011;10658;50.920;12.238;2023-02-17T06:36:09;14.60;;;9.05;;
21000;SDS011;10658;50.920;12.238;2023-02-17T06:40:11;13.60;;;9.20;;
21000;SDS011;10658;50.920;12.238;2023-02-17T06:44:13;18.17;;;9.93;;
21000;SDS011;10658;50.920;12.238;2023-02-17T06:48:38;16.13;;;9.65;;
21000;SDS011;10658;50.920;12.238;2023-02-17T06:52:40;15.13;;;9.65;;
21000;SDS011;10658;50.920;12.238;2023-02-17T06:56:41;15.70;;;9.77;;
21000;SDS011;10658;50.920;12.238;2023-02-17T07:00:43;15.65;;;9.73;;
21000;SDS011;10658;50.920;12.238;2023-02-17T07:04:44;13.70;;;7.82;;
21000;SDS011;10658;50.920;12.238;2023-02-17T07:08:46;15.02;;;8.93;;
21000;SDS011;10658;50.920;12.238;2023-02-17T07:12:47;15.80;;;10.15;;
21000;SDS011;10658;50.920;12.238;2023-02-17T07:16:49;15.93;;;9.15;;
21000;SDS011;10658;50.920;12.238;2023-02-17T07:20:50;15.70;;;10.23;;
21000;SDS011;10658;50.920;12.238;2023-02-17T07:24:52;13.27;;;8.57;;
21000;SDS011;10658;50.920;12.238;2023-02-17T07:28:53;17.30;;;9.13;;
21000;SDS011;10658;50.920;12.238;2023-02-17T07:32:54;16.75;;;8.68;;
21000;SDS011;10658;50.920;12.238;2023-02-17T07:36:56;13.55;;;8.07;;
21000;SDS011;10658;50.920;12.238;2023-02-17T07:41:02;13.95;;;8.05;;
21000;SDS011;10658;50.920;12.238;2023-02-17T07:45:08;13.65;;;7.65;;
21000;SDS011;10658;50.920;12.238;2023-02-17T07:49:09;12.55;;;7.78;;
21000;SDS011;10658;50.920;12.238;2023-02-17T07:53:11;10.10;;;6.78;;
21000;SDS011;10658;50.920;12.238;2023-02-17T07:57:12;10.98;;;6.82;;
21000;SDS011;10658;50.920;12.238;2023-02-17T08:01:17;8.68;;;6.68;;
21000;SDS011;10658;50.920;12.238;2023-02-17T08:05:21;14.07;;;7.60;;
21000;SDS011;10658;50.920;12.238;2023-02-17T08:09:22;9.35;;;5.97;;
21000;SDS011;10658;50.920;12.238;2023-02-17T08:13:43;8.48;;;5.40;;
21000;SDS011;10658;50.920;12.238;2023-02-17T08:17:45;8.35;;;5.50;;
21000;SDS011;10658;50.920;12.238;2023-02-17T08:21:48;7.05;;;4.82;;
21000;SDS011;10658;50.920;12.238;2023-02-17T08:25:50;8.32;;;5.25;;
21000;SDS011;10658;50.920;12.238;2023-02-17T08:29:51;6.57;;;4.68;;
21000;SDS011;10658;50.920;12.238;2023-02-17T08:33:53;8.68;;;4.88;;
21000;SDS011;10658;50.920;12.238;2023-02-17T08:37:54;7.43;;;5.18;;
21000;SDS011;10658;50.920;12.238;2023-02-17T08:41:56;5.65;;;4.57;;
21000;SDS011;10658;50.920;12.238;2023-02-17T08:45:57;7.28;;;4.60;;
21000;SDS011;10658;50.920;12.238;2023-02-17T08:49:58;6.22;;;4.00;;
21000;SDS011;10658;50.920;12.238;2023-02-17T08:54:01;5.15;;;3.60;;
21000;SDS011;10658;50.920;12.238;2023-02-17T08:58:06;5.35;;;3.42;;
21000;SDS011;10658;50.920;12.238;2023-02-17T09:02:09;5.38;;;3.65;;
21000;SDS011;10658;50.920;12.238;2023-02-17T09:06:10;5.72;;;3.78;;
21000;SDS011;10658;50.920;12.238;2023-02-17T09:10:12;4.47;;;1.92;;
21000;SDS011;10658;50.920;12.238;2023-02-17T09:14:14;4.00;;;3.50;;
21000;SDS011;10658;50.920;12.238;2023-02-17T09:18:16;5.22;;;2.95;;
21000;SDS011;10658;50.920;12.238;2023-02-17T09:22:17;6.30;;;3.35;;
21000;SDS011;10658;50.920;12.238;2023-02-17T09:26:20;3.47;;;2.35;;
21000;SDS011;10658;50.920;12.238;2023-02-17T09:30:23;4.00;;;3.13;;
21000;SDS011;10658;50.920;12.238;2023-02-17T09:34:25;4.53;;;3.17;;
21000;SDS011;10658;50.920;12.238;2023-02-17T09:49:36;4.28;;;3.53;;
21000;SDS011;10658;50.920;12.238;2023-02-17T10:00:06;3.58;;;2.80;;
21000;SDS011;10658;50.920;12.238;2023-02-17T10:04:13;5.25;;;3.60;;
21000;SDS011;10658;50.920;12.238;2023-02-17T10:08:22;7.18;;;3.10;;
21000;SDS011;10658;50.920;12.238;2023-02-17T10:12:36;4.72;;;3.40;;
21000;SDS011;10658;50.920;12.238;2023-02-17T10:16:50;3.85;;;2.92;;
21000;SDS011;10658;50.920;12.238;2023-02-17T10:21:04;4.82;;;3.53;;
21000;SDS011;10658;50.920;12.238;2023-02-17T10:30:30;4.70;;;3.65;;
21000;SDS011;10658;50.920;12.238;2023-02-17T10:39:16;4.05;;;3.00;;
21000;SDS011;10658;50.920;12.238;2023-02-17T10:43:47;4.90;;;2.92;;
21000;SDS011;10658;50.920;12.238;2023-02-17T10:47:51;4.95;;;2.85;;
21000;SDS011;10658;50.920;12.238;2023-02-17T10:52:09;5.32;;;3.10;;
21000;SDS011;10658;50.920;12.238;2023-02-17T11:00:23;4.15;;;2.53;;
21000;SDS011;10658;50.920;12.238;2023-02-17T11:04:26;4.13;;;2.20;;
21000;SDS011;10658;50.920;12.238;2023-02-17T11:08:39;3.45;;;2.30;;
21000;SDS011;10658;50.920;12.238;2023-02-17T11:13:28;2.92;;;1.88;;
21000;SDS011;10658;50.920;12.238;2023-02-17T11:17:58;3.20;;;2.10;;
21000;SDS011;10658;50.920;12.238;2023-02-17T11:22:02;3.20;;;2.53;;
21000;SDS011;10658;50.920;12.238;2023-02-17T11:26:09;4.53;;;3.53;;
21000;SDS011;10658;50.920;12.238;2023-02-17T11:30:16;5.45;;;2.78;;
21000;SDS011;10658;50.920;12.238;2023-02-17T11:34:21;2.97;;;2.25;;
21000;SDS011;10658;50.920;12.238;2023-02-17T11:38:26;2.20;;;1.80;;
21000;SDS011;10658;50.920;12.238;2023-02-17T11:42:36;2.08;;;1.95;;
21000;SDS011;10658;50.920;12.238;2023-02-17T11:46:39;2.92;;;2.38;;
21000;SDS011;10658;50.920;12.238;2023-02-17T11:59:55;1.77;;;1.35;;
21000;SDS011;10658;50.920;12.238;2023-02-17T12:09:16;3.72;;;2.10;;
21000;SDS011;10658;50.920;12.238;2023-02-17T12:18:00;3.97;;;2.53;;
21000;SDS011;10658;50.920;12.238;2023-02-17T12:22:27;2.60;;;1.67;;
21000;SDS011;10658;50.920;12.238;2023-02-17T12:26:45;1.95;;;1.48;;
21000;SDS011;10658;50.920;12.238;2023-02-17T12:35:31;2.78;;;2.20;;
21000;SDS011;10658;50.920;12.238;2023-02-17T12:39:54;2.47;;;2.17;;
21000;SDS011;10658;50.920;12.238;2023-02-17T12:44:01;2.53;;;2.03;;
21000;SDS011;10658;50.920;12.238;2023-02-17T12:48:09;1.55;;;1.20;;
21000;SDS011;10658;50.920;12.238;2023-02-17T12:52:23;2.22;;;1.00;;
21000;SDS011;10658;50.920;12.238;2023-02-17T13:01:25;2.28;;;1.10;;
21000;SDS011;10658;50.920;12.238;2023-02-17T13:10:03;1.98;;;1.58;;
21000;SDS011;10658;50.920;12.238;2023-02-17T13:14:19;3.92;;;2.38;;
21000;SDS011;10658;50.920;12.238;2023-02-17T13:18:27;2.35;;;1.58;;
21000;SDS011;10658;50.920;12.238;2023-02-17T13:22:30;1.50;;;1.10;;
21000;SDS011;10658;50.920;12.238;2023-02-17T13:26:34;2.55;;;1.80;;
21000;SDS011;10658;50.920;12.238;2023-02-17T13:30:40;1.70;;;1.35;;
21000;SDS011;10658;50.920;12.238;2023-02-17T13:34:46;1.17;;;1.08;;
21000;SDS011;10658;50.920;12.238;2023-02-17T13:39:00;2.75;;;1.75;;
21000;SDS011;10658;50.920;12.238;2023-02-17T13:43:26;1.75;;;1.20;;
21000;SDS011;10658;50.920;12.238;2023-02-17T13:47:35;3.22;;;1.75;;
21000;SDS011;10658;50.920;12.238;2023-02-17T13:51:38;3.55;;;1.50;;
21000;SDS011;10658;50.920;12.238;2023-02-17T14:11:16;2.50;;;1.70;;
21000;SDS011;10658;50.920;12.238;2023-02-17T14:15:22;1.50;;;1.40;;
21000;SDS011;10658;50.920;12.238;2023-02-17T14:23:51;1.85;;;1.70;;
21000;SDS011;10658;50.920;12.238;2023-02-17T14:27:54;4.93;;;2.25;;
21000;SDS011;10658;50.920;12.238;2023-02-17T14:31:59;2.78;;;2.20;;
21000;SDS011;10658;50.920;12.238;2023-02-17T14:36:02;1.70;;;1.17;;
21000;SDS011;10658;50.920;12.238;2023-02-17T14:40:20;1.50;;;1.25;;
21000;SDS011;10658;50.920;12.238;2023-02-17T14:44:33;2.70;;;2.28;;
21000;SDS011;10658;50.920;12.238;2023-02-17T14:48:48;4.13;;;3.10;;
21000;SDS011;10658;50.920;12.238;2023-02-17T14:52:50;2.70;;;1.33;;
21000;SDS011;10658;50.920;12.238;2023-02-17T14:57:10;2.30;;;1.67;;
21000;SDS011;10658;50.920;12.238;2023-02-17T15:01:15;1.75;;;1.60;;
21000;SDS011;10658;50.920;12.238;2023-02-17T15:05:18;1.95;;;1.55;;
21000;SDS011;10658;50.920;12.238;2023-02-17T15:09:26;2.58;;;1.70;;
21000;SDS011;10658;50.920;12.238;2023-02-17T15:13:35;1.90;;;1.60;;
21000;SDS011;10658;50.920;12.238;2023-02-17T15:17:37;2.17;;;1.50;;
21000;SDS011;10658;50.920;12.238;2023-02-17T15:21:42;2.88;;;2.53;;
21000;SDS011;10658;50.920;12.238;2023-02-17T15:25:47;2.72;;;1.75;;
21000;SDS011;10658;50.920;12.238;2023-02-17T15:29:48;1.55;;;1.35;;
21000;SDS011;10658;50.920;12.238;2023-02-17T15:33:57;3.45;;;1.75;;
21000;SDS011;10658;50.920;12.238;2023-02-17T15:38:01;2.42;;;1.75;;
21000;SDS011;10658;50.920;12.238;2023-02-17T15:42:06;2.30;;;1.40;;
21000;SDS011;10658;50.920;12.238;2023-02-17T15:46:16;1.75;;;1.40;;
21000;SDS011;10658;50.920;12.238;2023-02-17T15:50:19;11.45;;;3.53;;
21000;SDS011;10658;50.920;12.238;2023-02-17T15:54:22;8.85;;;2.75;;
21000;SDS011;10658;50.920;12.238;2023-02-17T16:02:31;8.45;;;3.83;;
21000;SDS011;10658;50.920;12.238;2023-02-17T16:06:32;1.20;;;1.10;;
21000;SDS011;10658;50.920;12.238;2023-02-17T16:10:34;1.42;;;1.33;;
21000;SDS011;10658;50.920;12.238;2023-02-17T16:14:37;0.70;;;0.60;;
21000;SDS011;10658;50.920;12.238;2023-02-17T16:18:40;1.25;;;1.05;;
21000;SDS011;10658;50.920;12.238;2023-02-17T16:22:43;2.90;;;2.20;;
21000;SDS011;10658;50.920;12.238;2023-02-17T16:26:45;2.95;;;1.95;;
21000;SDS011;10658;50.920;12.238;2023-02-17T16:30:48;1.98;;;1.23;;
21000;SDS011;10658;50.920;12.238;2023-02-17T16:34:50;1.67;;;0.93;;
21000;SDS011;10658;50.920;12.238;2023-02-17T16:38:54;1.75;;;1.48;;
21000;SDS011;10658;50.920;12.238;2023-02-17T16:43:02;2.10;;;1.40;;
21000;SDS011;10658;50.920;12.238;2023-02-17T16:47:17;1.80;;;1.40;;
21000;SDS011;10658;50.920;12.238;2023-02-17T16:51:23;2.47;;;1.83;;
21000;SDS011;10658;50.920;12.238;2023-02-17T16:55:26;1.92;;;1.38;;
21000;SDS011;10658;50.920;12.238;2023-02-17T16:59:33;1.67;;;1.40;;
21000;SDS011;10658;50.920;12.238;2023-02-17T17:03:39;1.25;;;1.15;;
21000;SDS011;10658;50.920;12.238;2023-02-17T17:08:05;3.03;;;1.75;;
21000;SDS011;10658;50.920;12.238;2023-02-17T17:12:12;5.72;;;1.60;;
21000;SDS011;10658;50.920;12.238;2023-02-17T17:20:43;2.25;;;1.85;;
21000;SDS011;10658;50.920;12.238;2023-02-17T17:29:17;3.30;;;1.70;;
21000;SDS011;10658;50.920;12.238;2023-02-17T17:33:28;2.25;;;1.45;;
21000;SDS011;10658;50.920;12.238;2023-02-17T17:41:41;1.38;;;1.17;;
21000;SDS011;10658;50.920;12.238;2023-02-17T17:54:35;1.23;;;1.13;;
21000;SDS011;10658;50.920;12.238;2023-02-17T17:58:39;1.65;;;1.17;;
21000;SDS011;10658;50.920;12.238;2023-02-17T18:02:43;1.95;;;1.10;;
21000;SDS011;10658;50.920;12.238;2023-02-17T18:06:49;1.95;;;1.20;;
21000;SDS011;10658;50.920;12.238;2023-02-17T18:10:53;1.38;;;1.10;;
21000;SDS011;10658;50.920;12.238;2023-02-17T18:14:55;1.83;;;1.30;;
21000;SDS011;10658;50.920;12.238;2023-02-17T18:18:58;1.55;;;1.05;;
21000;SDS011;10658;50.920;12.238;2023-02-17T18:23:03;1.20;;;1.10;;
21000;SDS011;10658;50.920;12.238;2023-02-17T18:27:06;2.42;;;1.55;;
21000;SDS011;10658;50.920;12.238;2023-02-17T18:31:12;3.72;;;1.63;;
21000;SDS011;10658;50.920;12.238;2023-02-17T18:35:15;3.15;;;2.03;;
21000;SDS011;10658;50.920;12.238;2023-02-17T18:39:16;1.92;;;1.55;;
21000;SDS011;10658;50.920;12.238;2023-02-17T18:43:17;2.20;;;1.65;;
21000;SDS011;10658;50.920;12.238;2023-02-17T18:47:20;2.15;;;1.83;;
21000;SDS011;10658;50.920;12.238;2023-02-17T18:51:23;2.78;;;1.98;;
21000;SDS011;10658;50.920;12.238;2023-02-17T18:55:30;1.65;;;1.55;;
21000;SDS011;10658;50.920;12.238;2023-02-17T18:59:32;2.13;;;1.80;;
21000;SDS011;10658;50.920;12.238;2023-02-17T19:03:34;1.52;;;1.42;;
21000;SDS011;10658;50.920;12.238;2023-02-17T19:07:40;2.30;;;2.10;;
21000;SDS011;10658;50.920;12.238;2023-02-17T19:11:42;2.75;;;2.38;;
21000;SDS011;10658;50.920;12.238;2023-02-17T19:15:43;2.35;;;1.90;;
21000;SDS011;10658;50.920;12.238;2023-02-17T19:19:44;3.40;;;2.25;;
21000;SDS011;10658;50.920;12.238;2023-02-17T19:23:47;3.35;;;1.75;;
21000;SDS011;10658;50.920;12.238;2023-02-17T19:27:49;1.98;;;1.83;;
21000;SDS011;10658;50.920;12.238;2023-02-17T19:31:51;1.40;;;1.25;;
21000;SDS011;10658;50.920;12.238;2023-02-17T19:35:53;2.35;;;1.67;;
21000;SDS011;10658;50.920;12.238;2023-02-17T19:39:56;3.33;;;2.03;;
21000;SDS011;10658;50.920;12.238;2023-02-17T19:43:57;2.53;;;1.88;;
21000;SDS011;10658;50.920;12.238;2023-02-17T19:47:59;3.67;;;2.40;;
21000;SDS011;10658;50.920;12.238;2023-02-17T19:52:01;5.55;;;3.00;;
21000;SDS011;10658;50.920;12.238;2023-02-17T19:56:22;6.00;;;3.33;;
21000;SDS011;10658;50.920;12.238;2023-02-17T20:00:27;5.97;;;3.63;;
21000;SDS011;10658;50.920;12.238;2023-02-17T20:04:28;5.25;;;3.58;;
21000;SDS011;10658;50.920;12.238;2023-02-17T20:08:30;3.92;;;3.10;;
21000;SDS011;10658;50.920;12.238;2023-02-17T20:12:31;7.18;;;3.75;;
21000;SDS011;10658;50.920;12.238;2023-02-17T20:16:33;5.60;;;3.17;;
21000;SDS011;10658;50.920;12.238;2023-02-17T20:20:34;4.95;;;3.42;;
21000;SDS011;10658;50.920;12.238;2023-02-17T20:24:36;5.05;;;3.63;;
21000;SDS011;10658;50.920;12.238;2023-02-17T20:28:38;5.55;;;3.42;;
21000;SDS011;10658;50.920;12.238;2023-02-17T20:32:40;5.32;;;3.15;;
21000;SDS011;10658;50.920;12.238;2023-02-17T20:36:41;7.20;;;3.10;;
21000;SDS011;10658;50.920;12.238;2023-02-17T20:40:43;6.80;;;3.20;;
21000;SDS011;10658;50.920;12.238;2023-02-17T20:44:50;3.63;;;2.58;;
21000;SDS011;10658;50.920;12.238;2023-02-17T20:48:59;4.85;;;3.05;;
21000;SDS011;10658;50.920;12.238;2023-02-17T20:53:02;4.05;;;2.30;;
21000;SDS011;10658;50.920;12.238;2023-02-17T20:57:08;8.68;;;2.10;;
21000;SDS011;10658;50.920;12.238;2023-02-17T21:01:14;3.55;;;2.42;;
21000;SDS011;10658;50.920;12.238;2023-02-17T21:05:20;3.17;;;2.55;;
21000;SDS011;10658;50.920;12.238;2023-02-17T21:09:27;4.82;;;2.50;;
21000;SDS011;10658;50.920;12.238;2023-02-17T21:13:30;2.72;;;1.88;;
21000;SDS011;10658;50.920;12.238;2023-02-17T21:17:31;3.28;;;2.40;;
21000;SDS011;10658;50.920;12.238;2023-02-17T21:21:32;5.65;;;2.70;;
21000;SDS011;10658;50.920;12.238;2023-02-17T21:25:35;2.97;;;2.70;;
21000;SDS011;10658;50.920;12.238;2023-02-17T21:29:36;3.08;;;1.70;;
21000;SDS011;10658;50.920;12.238;2023-02-17T21:33:38;6.93;;;2.45;;
21000;SDS011;10658;50.920;12.238;2023-02-17T21:37:42;4.85;;;2.63;;
21000;SDS011;10658;50.920;12.238;2023-02-17T21:41:44;2.55;;;2.00;;
21000;SDS011;10658;50.920;12.238;2023-02-17T21:45:45;2.53;;;1.83;;
21000;SDS011;10658;50.920;12.238;2023-02-17T21:49:50;5.40;;;2.17;;
21000;SDS011;10658;50.920;12.238;2023-02-17T21:53:53;3.03;;;1.55;;
21000;SDS011;10658;50.920;12.238;2023-02-17T21:57:54;3.38;;;2.05;;
21000;SDS011;10658;50.920;12.238;2023-02-17T22:01:56;3.28;;;2.15;;
21000;SDS011;10658;50.920;12.238;2023-02-17T22:05:58;2.67;;;1.48;;
21000;SDS011;10658;50.920;12.238;2023-02-17T22:10:01;4.15;;;2.80;;
21000;SDS011;10658;50.920;12.238;2023-02-17T22:14:04;3.67;;;2.10;;
21000;SDS011;10658;50.920;12.238;2023-02-17T22:18:08;4.25;;;2.53;;
21000;SDS011;10658;50.920;12.238;2023-02-17T22:22:14;3.40;;;2.53;;
21000;SDS011;10658;50.920;12.238;2023-02-17T22:26:17;2.75;;;1.83;;
21000;SDS011;10658;50.920;12.238;2023-02-17T22:30:24;3.55;;;1.92;;
21000;SDS011;10658;50.920;12.238;2023-02-17T22:34:29;2.83;;;1.85;;
21000;SDS011;10658;50.920;12.238;2023-02-17T22:38:33;5.25;;;2.33;;
21000;SDS011;10658;50.920;12.238;2023-02-17T22:42:36;3.80;;;1.92;;
21000;SDS011;10658;50.920;12.238;2023-02-17T22:46:37;3.95;;;2.10;;
21000;SDS011;10658;50.920;12.238;2023-02-17T22:50:41;3.50;;;1.85;;
21000;SDS011;10658;50.920;12.238;2023-02-17T22:54:47;3.88;;;2.53;;
21000;SDS011;10658;50.920;12.238;2023-02-17T22:58:51;3.20;;;2.15;;
21000;SDS011;10658;50.920;12.238;2023-02-17T23:03:01;4.47;;;2.35;;
21000;SDS011;10658;50.920;12.238;2023-02-17T23:07:03;4.93;;;3.13;;
21000;SDS011;10658;50.920;12.238;2023-02-17T23:11:05;4.72;;;3.05;;
21000;SDS011;10658;50.920;12.238;2023-02-17T23:15:29;6.43;;;3.70;;
21000;SDS011;10658;50.920;12.238;2023-02-17T23:19:40;5.10;;;3.50;;
21000;SDS011;10658;50.920;12.238;2023-02-17T23:23:42;5.70;;;3.75;;
21000;SDS011;10658;50.920;12.238;2023-02-17T23:27:45;5.22;;;3.63;;
21000;SDS011;10658;50.920;12.238;2023-02-17T23:31:47;5.32;;;3.65;;
21000;SDS011;10658;50.920;12.238;2023-02-17T23:35:48;6.05;;;3.70;;
21000;SDS011;10658;50.920;12.238;2023-02-17T23:39:49;6.03;;;3.90;;
21000;SDS011;10658;50.920;12.238;2023-02-17T23:43:50;4.95;;;3.55;;
21000;SDS011;10658;50.920;12.238;2023-02-17T23:47:52;6.32;;;4.10;;
21000;SDS011;10658;50.920;12.238;2023-02-17T23:51:54;8.23;;;3.63;;
21000;SDS011;10658;50.920;12.238;2023-02-17T23:56:07;5.90;;;3.70;;
